createdAt,value
2022-10-17T00:00:45.252Z,6.20
2022-10-17T00:04:46.641Z,6.05
2022-10-17T00:08:48.033Z,5.75
2022-10-17T00:12:50.922Z,6.10
2022-10-17T00:16:52.273Z,5.50
2022-10-17T00:20:53.715Z,5.10
2022-10-17T00:24:55.099Z,4.78
2022-10-17T00:28:56.995Z,4.50
2022-10-17T00:32:58.422Z,5.07
2022-10-17T00:36:59.817Z,4.95
2022-10-17T00:41:01.637Z,4.95
2022-10-17T00:45:20.899Z,4.57
2022-10-17T00:49:26.097Z,4.93
2022-10-17T00:53:27.615Z,5.18
2022-10-17T00:57:31.742Z,4.82
2022-10-17T01:01:33.825Z,4.68
2022-10-17T01:05:35.919Z,5.07
2022-10-17T01:09:38.720Z,5.30
2022-10-17T01:13:50.210Z,5.45
2022-10-17T01:18:10.258Z,5.30
2022-10-17T01:26:31.948Z,5.80
2022-10-17T01:31:03.111Z,5.75
2022-10-17T01:35:18.884Z,5.82
2022-10-17T01:39:43.938Z,4.97
2022-10-17T01:43:59.318Z,5.32
2022-10-17T01:48:07.254Z,5.78
2022-10-17T01:52:24.818Z,5.45
2022-10-17T01:56:29.813Z,5.50
2022-10-17T02:00:32.543Z,6.10
2022-10-17T02:04:35.140Z,6.60
2022-10-17T02:08:48.393Z,6.45
2022-10-17T02:12:58.959Z,6.28
2022-10-17T02:17:02.935Z,5.60
2022-10-17T02:21:13.229Z,5.97
2022-10-17T02:25:21.009Z,6.10
2022-10-17T02:29:38.885Z,5.60
2022-10-17T02:33:46.290Z,6.32
2022-10-17T02:37:48.726Z,5.75
2022-10-17T02:41:52.545Z,6.13
2022-10-17T02:45:55.003Z,6.35
2022-10-17T02:49:58.762Z,5.95
2022-10-17T02:54:19.807Z,6.13
2022-10-17T02:58:25.465Z,5.85
2022-10-17T03:02:27.211Z,5.32
2022-10-17T03:06:28.765Z,5.63
2022-10-17T03:10:30.166Z,5.47
2022-10-17T03:14:31.580Z,5.68
2022-10-17T03:18:32.975Z,5.85
2022-10-17T03:22:34.502Z,6.40
2022-10-17T03:26:35.984Z,5.88
2022-10-17T03:30:38.645Z,5.78
2022-10-17T03:34:40.012Z,5.20
2022-10-17T03:38:42.491Z,5.30
2022-10-17T03:42:44.069Z,4.93
2022-10-17T03:46:45.607Z,5.85
2022-10-17T03:50:47.072Z,5.68
2022-10-17T03:54:50.371Z,5.72
2022-10-17T03:58:52.151Z,5.32
2022-10-17T04:02:53.755Z,5.22
2022-10-17T04:06:55.183Z,5.93
2022-10-17T04:11:00.946Z,5.35
2022-10-17T04:15:02.351Z,5.40
2022-10-17T04:19:04.129Z,5.40
2022-10-17T04:23:05.530Z,5.32
2022-10-17T04:27:07.012Z,4.97
2022-10-17T04:31:13.092Z,5.40
2022-10-17T04:35:14.570Z,5.40
2022-10-17T04:39:15.923Z,5.47
2022-10-17T04:43:17.389Z,5.53
2022-10-17T04:47:18.763Z,5.68
2022-10-17T04:51:23.157Z,5.20
2022-10-17T04:55:27.525Z,5.13
2022-10-17T04:59:28.949Z,5.68
2022-10-17T05:03:30.330Z,5.10
2022-10-17T05:07:31.753Z,5.43
2022-10-17T05:11:33.200Z,6.15
2022-10-17T05:15:35.277Z,5.80
2022-10-17T05:19:36.721Z,6.60
2022-10-17T05:23:38.100Z,5.47
2022-10-17T05:27:39.498Z,6.32
2022-10-17T05:31:40.889Z,5.60
2022-10-17T05:35:42.323Z,5.88
2022-10-17T05:39:46.756Z,6.20
2022-10-17T05:43:50.774Z,5.68
2022-10-17T05:47:52.170Z,6.00
2022-10-17T05:51:53.603Z,5.78
2022-10-17T05:55:56.611Z,5.25
2022-10-17T05:59:58.090Z,6.25
2022-10-17T06:03:59.507Z,5.88
2022-10-17T06:08:02.105Z,6.28
2022-10-17T06:12:03.733Z,5.78
2022-10-17T06:16:05.959Z,5.70
2022-10-17T06:20:08.049Z,5.90
2022-10-17T06:24:09.497Z,5.65
2022-10-17T06:28:11.393Z,5.65
2022-10-17T06:32:15.070Z,6.00
2022-10-17T06:36:16.781Z,5.80
2022-10-17T06:40:18.384Z,6.28
2022-10-17T06:44:19.762Z,5.85
2022-10-17T06:48:21.187Z,5.35
2022-10-17T06:52:22.871Z,5.72
2022-10-17T06:56:24.389Z,5.25
2022-10-17T07:00:26.790Z,5.68
2022-10-17T07:04:28.433Z,5.03
2022-10-17T07:08:29.868Z,5.45
2022-10-17T07:12:31.299Z,4.85
2022-10-17T07:16:33.030Z,4.93
2022-10-17T07:20:36.542Z,4.45
2022-10-17T07:24:38.006Z,4.97
2022-10-17T07:28:42.105Z,4.70
2022-10-17T07:32:44.170Z,4.65
2022-10-17T07:36:45.825Z,4.57
2022-10-17T07:40:54.575Z,3.83
2022-10-17T07:44:56.054Z,3.83
2022-10-17T07:48:57.454Z,4.05
2022-10-17T07:52:58.845Z,4.03
2022-10-17T07:57:00.415Z,3.83
2022-10-17T08:01:10.682Z,3.47
2022-10-17T08:05:15.289Z,3.67
2022-10-17T08:09:17.008Z,2.97
2022-10-17T08:13:18.446Z,3.00
2022-10-17T08:17:19.841Z,3.45
2022-10-17T08:21:21.295Z,2.60
2022-10-17T08:25:23.288Z,2.90
2022-10-17T08:29:25.055Z,2.65
2022-10-17T08:33:26.436Z,2.50
2022-10-17T08:37:28.220Z,2.38
2022-10-17T08:41:44.719Z,2.20
2022-10-17T08:45:52.398Z,2.78
2022-10-17T08:50:02.628Z,2.67
2022-10-17T08:54:16.591Z,2.80
2022-10-17T08:58:20.887Z,2.28
2022-10-17T09:02:40.977Z,2.28
2022-10-17T09:06:56.048Z,2.72
2022-10-17T09:11:21.891Z,2.40
2022-10-17T09:15:40.658Z,2.80
2022-10-17T09:20:09.872Z,2.47
2022-10-17T09:24:22.512Z,2.70
2022-10-17T09:28:34.805Z,2.55
2022-10-17T09:32:37.542Z,2.22
2022-10-17T09:36:40.629Z,2.30
2022-10-17T09:40:42.177Z,2.47
2022-10-17T09:45:12.911Z,2.15
2022-10-17T09:49:29.183Z,2.70
2022-10-17T09:53:36.046Z,3.03
2022-10-17T09:57:58.619Z,2.47
2022-10-17T10:02:20.747Z,1.88
2022-10-17T10:06:22.170Z,2.55
2022-10-17T10:10:27.909Z,2.47
2022-10-17T10:14:35.768Z,2.17
2022-10-17T10:18:37.246Z,2.30
2022-10-17T10:22:38.749Z,2.50
2022-10-17T10:26:48.745Z,2.30
2022-10-17T10:30:52.308Z,2.20
2022-10-17T10:35:08.705Z,2.92
2022-10-17T10:39:25.601Z,2.10
2022-10-17T10:43:37.811Z,2.00
2022-10-17T10:47:39.405Z,2.05
2022-10-17T10:51:45.883Z,1.90
2022-10-17T10:55:54.903Z,2.15
2022-10-17T11:00:04.520Z,2.30
2022-10-17T11:04:31.257Z,1.88
2022-10-17T11:08:40.680Z,1.73
2022-10-17T11:13:13.833Z,2.10
2022-10-17T11:17:35.019Z,2.10
2022-10-17T11:21:47.011Z,2.28
2022-10-17T11:25:51.237Z,2.20
2022-10-17T11:29:52.685Z,1.75
2022-10-17T11:34:04.702Z,2.00
2022-10-17T11:38:18.564Z,2.42
2022-10-17T11:42:27.418Z,2.10
2022-10-17T11:46:29.844Z,2.20
2022-10-17T11:55:06.456Z,2.13
2022-10-17T11:59:45.575Z,2.25
2022-10-17T12:04:12.671Z,2.07
2022-10-17T12:08:29.138Z,2.40
2022-10-17T12:12:34.836Z,2.40
2022-10-17T12:16:38.604Z,1.98
2022-10-17T12:20:40.425Z,2.10
2022-10-17T12:24:54.706Z,2.40
2022-10-17T12:28:57.426Z,2.00
2022-10-17T12:33:07.792Z,2.17
2022-10-17T12:37:11.768Z,2.53
2022-10-17T12:41:13.273Z,2.30
2022-10-17T12:45:46.913Z,2.28
2022-10-17T12:49:55.746Z,2.33
2022-10-17T12:54:16.277Z,2.15
2022-10-17T12:58:17.823Z,2.58
2022-10-17T13:02:22.077Z,2.08
2022-10-17T13:06:29.574Z,2.63
2022-10-17T13:10:43.006Z,2.45
2022-10-17T13:14:47.075Z,2.65
2022-10-17T13:18:53.121Z,2.03
2022-10-17T13:22:57.131Z,2.20
2022-10-17T13:26:59.404Z,2.10
2022-10-17T13:31:00.786Z,2.10
2022-10-17T13:35:14.278Z,2.28
2022-10-17T13:39:23.165Z,2.55
2022-10-17T13:43:31.165Z,2.00
2022-10-17T13:47:36.681Z,1.83
2022-10-17T13:51:43.872Z,1.90
2022-10-17T13:56:15.823Z,2.42
2022-10-17T14:00:21.635Z,2.20
2022-10-17T14:04:23.116Z,2.42
2022-10-17T14:08:24.928Z,1.77
2022-10-17T14:12:26.597Z,2.00
2022-10-17T14:16:38.865Z,2.03
2022-10-17T14:21:19.782Z,1.92
2022-10-17T14:25:04.464Z,2.03
2022-10-17T14:29:17.221Z,2.30
2022-10-17T14:33:30.894Z,2.95
2022-10-17T14:37:47.650Z,1.90
2022-10-17T14:41:49.866Z,2.10
2022-10-17T14:45:51.861Z,2.70
2022-10-17T14:50:23.656Z,2.30
2022-10-17T14:54:27.440Z,2.50
2022-10-17T14:58:30.927Z,2.08
2022-10-17T15:02:32.630Z,2.65
2022-10-17T15:06:34.982Z,2.30
2022-10-17T15:10:37.593Z,2.50
2022-10-17T15:14:38.975Z,2.25
2022-10-17T15:18:40.353Z,19.33
2022-10-17T15:22:41.988Z,2.63
2022-10-17T15:26:43.616Z,2.38
2022-10-17T15:30:45.198Z,2.60
2022-10-17T15:34:46.774Z,2.30
2022-10-17T15:38:49.727Z,2.50
2022-10-17T15:42:51.579Z,2.15
2022-10-17T15:46:55.414Z,2.58
2022-10-17T15:50:56.896Z,2.30
2022-10-17T15:55:00.948Z,2.50
2022-10-17T15:59:12.970Z,2.97
2022-10-17T16:03:14.579Z,2.25
2022-10-17T16:07:18.349Z,2.08
2022-10-17T16:11:32.388Z,2.17
2022-10-17T16:15:34.191Z,3.55
2022-10-17T16:19:35.650Z,4.22
2022-10-17T16:23:37.148Z,6.80
2022-10-17T16:27:39.314Z,12.48
2022-10-17T16:31:43.140Z,23.75
2022-10-17T16:35:46.614Z,29.52
2022-10-17T16:39:52.274Z,17.50
2022-10-17T16:43:56.624Z,14.65
2022-10-17T16:47:58.127Z,11.75
2022-10-17T16:51:59.546Z,15.18
2022-10-17T16:56:04.871Z,6.68
2022-10-17T17:00:07.286Z,5.90
2022-10-17T17:04:09.337Z,4.70
2022-10-17T17:08:12.610Z,25.35
2022-10-17T17:12:14.249Z,10.50
2022-10-17T17:16:18.736Z,7.43
2022-10-17T17:20:20.220Z,5.68
2022-10-17T17:24:21.672Z,4.63
2022-10-17T17:28:23.100Z,4.00
2022-10-17T17:32:24.633Z,2.38
2022-10-17T17:36:28.609Z,5.78
2022-10-17T17:40:30.000Z,4.97
2022-10-17T17:44:31.904Z,5.30
2022-10-17T17:48:33.596Z,5.18
2022-10-17T17:52:35.328Z,4.32
2022-10-17T17:56:36.919Z,4.63
2022-10-17T18:00:40.457Z,4.50
2022-10-17T18:04:41.916Z,3.83
2022-10-17T18:08:45.736Z,4.03
2022-10-17T18:12:47.163Z,4.22
2022-10-17T18:16:48.546Z,5.20
2022-10-17T18:20:49.936Z,5.38
2022-10-17T18:24:51.375Z,6.15
2022-10-17T18:28:52.884Z,4.25
2022-10-17T18:32:54.238Z,4.05
2022-10-17T18:36:55.763Z,8.63
2022-10-17T18:41:05.593Z,8.38
2022-10-17T18:45:07.812Z,14.35
2022-10-17T18:49:11.427Z,16.90
2022-10-17T18:53:12.796Z,10.48
2022-10-17T18:57:14.240Z,3.95
2022-10-17T19:01:21.753Z,7.07
2022-10-17T19:05:23.223Z,8.10
2022-10-17T19:09:24.602Z,4.60
2022-10-17T19:13:25.983Z,5.80
2022-10-17T19:17:28.922Z,7.07
2022-10-17T19:21:31.651Z,6.30
2022-10-17T19:25:33.767Z,6.75
2022-10-17T19:29:35.808Z,10.57
2022-10-17T19:33:37.752Z,4.57
2022-10-17T19:37:39.653Z,5.07
2022-10-17T19:41:42.650Z,5.10
2022-10-17T19:45:44.631Z,4.93
2022-10-17T19:49:49.918Z,5.15
2022-10-17T19:53:53.934Z,7.47
2022-10-17T19:57:55.728Z,9.15
2022-10-17T20:01:57.646Z,7.90
2022-10-17T20:05:59.078Z,8.88
2022-10-17T20:10:00.580Z,6.70
2022-10-17T20:14:02.048Z,5.45
2022-10-17T20:18:04.859Z,7.13
2022-10-17T20:22:06.242Z,6.22
2022-10-17T20:26:26.344Z,6.82
2022-10-17T20:30:33.952Z,7.40
2022-10-17T20:34:36.022Z,12.07
2022-10-17T20:38:38.077Z,9.23
2022-10-17T20:42:40.050Z,6.75
2022-10-17T20:46:48.813Z,7.80
2022-10-17T20:50:58.925Z,9.18
2022-10-17T20:55:00.305Z,7.85
2022-10-17T20:59:06.990Z,10.63
2022-10-17T21:03:09.386Z,11.10
2022-10-17T21:07:10.784Z,10.98
2022-10-17T21:11:14.286Z,9.27
2022-10-17T21:15:15.741Z,8.40
2022-10-17T21:19:17.183Z,8.43
2022-10-17T21:23:18.560Z,8.90
2022-10-17T21:27:20.168Z,8.38
2022-10-17T21:31:26.998Z,9.73
2022-10-17T21:35:28.390Z,8.68
2022-10-17T21:39:29.853Z,9.70
2022-10-17T21:43:31.906Z,9.10
2022-10-17T21:47:34.525Z,8.50
2022-10-17T21:51:37.651Z,8.95
2022-10-17T21:55:39.088Z,12.07
2022-10-17T21:59:40.447Z,16.77
2022-10-17T22:03:46.773Z,11.13
2022-10-17T22:07:48.435Z,13.07
2022-10-17T22:11:52.307Z,13.07
2022-10-17T22:15:59.395Z,13.90
2022-10-17T22:20:00.870Z,13.40
2022-10-17T22:24:05.366Z,13.05
2022-10-17T22:28:06.844Z,12.18
2022-10-17T22:32:08.202Z,12.20
2022-10-17T22:36:10.159Z,13.38
2022-10-17T22:40:11.928Z,12.80
2022-10-17T22:44:13.345Z,14.88
2022-10-17T22:48:14.725Z,12.85
2022-10-17T22:52:16.113Z,12.63
2022-10-17T22:56:20.643Z,11.23
2022-10-17T23:00:22.109Z,12.38
2022-10-17T23:04:23.547Z,13.25
2022-10-17T23:08:25.999Z,12.35
2022-10-17T23:12:27.534Z,10.95
2022-10-17T23:16:29.054Z,12.45
2022-10-17T23:20:31.022Z,11.73
2022-10-17T23:24:33.217Z,11.93
2022-10-17T23:28:35.581Z,12.88
2022-10-17T23:32:38.512Z,12.70
2022-10-17T23:36:39.984Z,12.27
2022-10-17T23:40:41.988Z,12.13
2022-10-17T23:44:43.379Z,11.88
2022-10-17T23:48:44.769Z,13.88
2022-10-17T23:52:46.199Z,11.65
2022-10-17T23:56:47.597Z,11.32
